sensor_id;sensor_type;location;lat;lon;timestamp;P1;durP1;ratioP1;P2;durP2;ratioP2
34497;SDS011;20744;50.938;7.286;2022-12-07T00:00:18;79.20;;;34.20;;
34497;SDS011;20744;50.938;7.286;2022-12-07T00:02:45;130.80;;;38.88;;
34497;SDS011;20744;50.938;7.286;2022-12-07T00:05:13;68.63;;;33.33;;
34497;SDS011;20744;50.938;7.286;2022-12-07T00:07:40;138.13;;;37.63;;
34497;SDS011;20744;50.938;7.286;2022-12-07T00:10:07;73.50;;;33.00;;
34497;SDS011;20744;50.938;7.286;2022-12-07T00:12:36;98.70;;;37.50;;
34497;SDS011;20744;50.938;7.286;2022-12-07T00:15:03;85.10;;;36.78;;
34497;SDS011;20744;50.938;7.286;2022-12-07T00:17:31;105.70;;;39.05;;
34497;SDS011;20744;50.938;7.286;2022-12-07T00:19:58;116.65;;;38.55;;
34497;SDS011;20744;50.938;7.286;2022-12-07T00:22:25;79.57;;;36.55;;
34497;SDS011;20744;50.938;7.286;2022-12-07T00:24:53;83.32;;;37.28;;
34497;SDS011;20744;50.938;7.286;2022-12-07T00:27:20;86.63;;;37.97;;
34497;SDS011;20744;50.938;7.286;2022-12-07T00:29:48;279.33;;;50.47;;
34497;SDS011;20744;50.938;7.286;2022-12-07T00:32:16;86.63;;;39.10;;
34497;SDS011;20744;50.938;7.286;2022-12-07T00:34:43;84.00;;;41.28;;
34497;SDS011;20744;50.938;7.286;2022-12-07T00:37:10;86.55;;;40.75;;
34497;SDS011;20744;50.938;7.286;2022-12-07T00:39:38;79.97;;;41.15;;
34497;SDS011;20744;50.938;7.286;2022-12-07T00:42:05;96.15;;;43.30;;
34497;SDS011;20744;50.938;7.286;2022-12-07T00:44:32;87.30;;;41.83;;
34497;SDS011;20744;50.938;7.286;2022-12-07T00:47:01;97.65;;;42.70;;
34497;SDS011;20744;50.938;7.286;2022-12-07T00:49:28;90.13;;;41.78;;
34497;SDS011;20744;50.938;7.286;2022-12-07T00:51:55;92.03;;;43.42;;
34497;SDS011;20744;50.938;7.286;2022-12-07T00:54:22;86.00;;;41.75;;
34497;SDS011;20744;50.938;7.286;2022-12-07T00:56:50;102.47;;;44.13;;
34497;SDS011;20744;50.938;7.286;2022-12-07T00:59:17;90.68;;;45.95;;
34497;SDS011;20744;50.938;7.286;2022-12-07T01:01:44;99.65;;;47.65;;
34497;SDS011;20744;50.938;7.286;2022-12-07T01:04:13;118.07;;;48.45;;
34497;SDS011;20744;50.938;7.286;2022-12-07T01:06:40;114.05;;;49.78;;
34497;SDS011;20744;50.938;7.286;2022-12-07T01:09:07;103.50;;;47.28;;
34497;SDS011;20744;50.938;7.286;2022-12-07T01:11:34;104.20;;;47.20;;
34497;SDS011;20744;50.938;7.286;2022-12-07T01:14:01;104.72;;;47.42;;
34497;SDS011;20744;50.938;7.286;2022-12-07T01:16:29;93.88;;;46.75;;
34497;SDS011;20744;50.938;7.286;2022-12-07T01:18:57;94.57;;;46.38;;
34497;SDS011;20744;50.938;7.286;2022-12-07T01:21:28;96.60;;;46.42;;
34497;SDS011;20744;50.938;7.286;2022-12-07T01:23:57;92.75;;;46.38;;
34497;SDS011;20744;50.938;7.286;2022-12-07T01:26:25;106.75;;;46.45;;
34497;SDS011;20744;50.938;7.286;2022-12-07T01:28:52;91.90;;;45.30;;
34497;SDS011;20744;50.938;7.286;2022-12-07T01:31:20;98.82;;;46.88;;
34497;SDS011;20744;50.938;7.286;2022-12-07T01:33:48;88.25;;;45.28;;
34497;SDS011;20744;50.938;7.286;2022-12-07T01:36:17;98.43;;;45.95;;
34497;SDS011;20744;50.938;7.286;2022-12-07T01:38:46;93.10;;;46.05;;
34497;SDS011;20744;50.938;7.286;2022-12-07T01:41:14;102.20;;;48.33;;
34497;SDS011;20744;50.938;7.286;2022-12-07T01:46:23;100.00;;;48.47;;
34497;SDS011;20744;50.938;7.286;2022-12-07T01:48:51;109.00;;;49.47;;
34497;SDS011;20744;50.938;7.286;2022-12-07T01:51:18;95.93;;;47.88;;
34497;SDS011;20744;50.938;7.286;2022-12-07T01:53:46;94.15;;;48.30;;
34497;SDS011;20744;50.938;7.286;2022-12-07T01:56:15;91.70;;;46.92;;
34497;SDS011;20744;50.938;7.286;2022-12-07T01:58:44;93.43;;;48.78;;
34497;SDS011;20744;50.938;7.286;2022-12-07T02:01:11;102.75;;;50.38;;
34497;SDS011;20744;50.938;7.286;2022-12-07T02:03:39;91.85;;;47.55;;
34497;SDS011;20744;50.938;7.286;2022-12-07T02:06:07;98.10;;;49.05;;
34497;SDS011;20744;50.938;7.286;2022-12-07T02:08:34;92.50;;;49.08;;
34497;SDS011;20744;50.938;7.286;2022-12-07T02:11:03;119.88;;;52.20;;
34497;SDS011;20744;50.938;7.286;2022-12-07T02:13:32;99.43;;;47.47;;
34497;SDS011;20744;50.938;7.286;2022-12-07T02:16:03;95.10;;;48.03;;
34497;SDS011;20744;50.938;7.286;2022-12-07T02:18:36;101.38;;;48.33;;
34497;SDS011;20744;50.938;7.286;2022-12-07T02:21:07;100.88;;;48.50;;
34497;SDS011;20744;50.938;7.286;2022-12-07T02:23:40;95.72;;;47.47;;
34497;SDS011;20744;50.938;7.286;2022-12-07T02:26:15;97.40;;;46.15;;
34497;SDS011;20744;50.938;7.286;2022-12-07T02:31:29;88.07;;;45.28;;
34497;SDS011;20744;50.938;7.286;2022-12-07T02:34:00;86.88;;;45.45;;
34497;SDS011;20744;50.938;7.286;2022-12-07T02:36:32;84.65;;;43.70;;
34497;SDS011;20744;50.938;7.286;2022-12-07T02:39:03;87.53;;;44.58;;
34497;SDS011;20744;50.938;7.286;2022-12-07T02:41:33;85.28;;;43.47;;
34497;SDS011;20744;50.938;7.286;2022-12-07T02:44:03;82.97;;;44.17;;
34497;SDS011;20744;50.938;7.286;2022-12-07T02:46:36;81.93;;;42.47;;
34497;SDS011;20744;50.938;7.286;2022-12-07T02:49:04;80.45;;;42.28;;
34497;SDS011;20744;50.938;7.286;2022-12-07T02:51:32;86.72;;;45.10;;
34497;SDS011;20744;50.938;7.286;2022-12-07T02:53:59;81.18;;;42.58;;
34497;SDS011;20744;50.938;7.286;2022-12-07T02:56:27;85.63;;;44.00;;
34497;SDS011;20744;50.938;7.286;2022-12-07T02:59:02;83.90;;;43.38;;
34497;SDS011;20744;50.938;7.286;2022-12-07T03:01:37;89.20;;;44.20;;
34497;SDS011;20744;50.938;7.286;2022-12-07T03:04:09;87.90;;;44.75;;
34497;SDS011;20744;50.938;7.286;2022-12-07T03:06:43;89.60;;;46.08;;
34497;SDS011;20744;50.938;7.286;2022-12-07T03:09:17;95.65;;;48.33;;
34497;SDS011;20744;50.938;7.286;2022-12-07T03:11:48;108.68;;;46.95;;
34497;SDS011;20744;50.938;7.286;2022-12-07T03:14:16;99.75;;;48.67;;
34497;SDS011;20744;50.938;7.286;2022-12-07T03:16:47;102.68;;;48.33;;
34497;SDS011;20744;50.938;7.286;2022-12-07T03:19:18;95.57;;;49.28;;
34497;SDS011;20744;50.938;7.286;2022-12-07T03:21:47;98.60;;;48.78;;
34497;SDS011;20744;50.938;7.286;2022-12-07T03:24:17;110.10;;;49.55;;
34497;SDS011;20744;50.938;7.286;2022-12-07T03:26:46;96.30;;;46.53;;
34497;SDS011;20744;50.938;7.286;2022-12-07T03:29:17;100.85;;;48.78;;
34497;SDS011;20744;50.938;7.286;2022-12-07T03:31:47;96.20;;;50.20;;
34497;SDS011;20744;50.938;7.286;2022-12-07T03:34:18;109.70;;;52.00;;
34497;SDS011;20744;50.938;7.286;2022-12-07T03:36:48;103.38;;;51.67;;
34497;SDS011;20744;50.938;7.286;2022-12-07T03:39:17;103.68;;;50.17;;
34497;SDS011;20744;50.938;7.286;2022-12-07T03:41:46;111.93;;;51.15;;
34497;SDS011;20744;50.938;7.286;2022-12-07T03:44:13;111.85;;;52.63;;
34497;SDS011;20744;50.938;7.286;2022-12-07T03:46:43;107.68;;;51.40;;
34497;SDS011;20744;50.938;7.286;2022-12-07T03:49:13;109.05;;;51.92;;
34497;SDS011;20744;50.938;7.286;2022-12-07T03:51:45;108.05;;;51.13;;
34497;SDS011;20744;50.938;7.286;2022-12-07T03:54:14;106.93;;;50.58;;
34497;SDS011;20744;50.938;7.286;2022-12-07T03:56:42;106.80;;;50.92;;
34497;SDS011;20744;50.938;7.286;2022-12-07T03:59:10;97.50;;;50.30;;
34497;SDS011;20744;50.938;7.286;2022-12-07T04:01:38;102.65;;;51.35;;
34497;SDS011;20744;50.938;7.286;2022-12-07T04:04:05;109.63;;;51.72;;
34497;SDS011;20744;50.938;7.286;2022-12-07T04:06:34;106.57;;;51.63;;
34497;SDS011;20744;50.938;7.286;2022-12-07T04:09:01;111.20;;;51.08;;
34497;SDS011;20744;50.938;7.286;2022-12-07T04:11:28;100.68;;;49.70;;
34497;SDS011;20744;50.938;7.286;2022-12-07T04:13:56;99.70;;;52.00;;
34497;SDS011;20744;50.938;7.286;2022-12-07T04:16:40;103.10;;;49.70;;
34497;SDS011;20744;50.938;7.286;2022-12-07T04:19:08;101.75;;;49.92;;
34497;SDS011;20744;50.938;7.286;2022-12-07T04:21:36;103.03;;;50.00;;
34497;SDS011;20744;50.938;7.286;2022-12-07T04:24:03;103.05;;;49.13;;
34497;SDS011;20744;50.938;7.286;2022-12-07T04:26:31;90.40;;;47.75;;
34497;SDS011;20744;50.938;7.286;2022-12-07T04:28:58;95.22;;;45.38;;
34497;SDS011;20744;50.938;7.286;2022-12-07T04:31:25;81.28;;;44.85;;
34497;SDS011;20744;50.938;7.286;2022-12-07T04:33:52;73.40;;;40.95;;
34497;SDS011;20744;50.938;7.286;2022-12-07T04:36:20;70.63;;;39.58;;
34497;SDS011;20744;50.938;7.286;2022-12-07T04:38:48;67.65;;;39.20;;
34497;SDS011;20744;50.938;7.286;2022-12-07T04:41:15;64.47;;;37.25;;
34497;SDS011;20744;50.938;7.286;2022-12-07T04:43:43;64.07;;;37.15;;
34497;SDS011;20744;50.938;7.286;2022-12-07T04:46:10;64.93;;;36.75;;
34497;SDS011;20744;50.938;7.286;2022-12-07T04:48:37;64.55;;;37.10;;
34497;SDS011;20744;50.938;7.286;2022-12-07T04:51:04;62.33;;;36.22;;
34497;SDS011;20744;50.938;7.286;2022-12-07T04:53:32;63.38;;;37.72;;
34497;SDS011;20744;50.938;7.286;2022-12-07T04:56:00;57.92;;;36.25;;
34497;SDS011;20744;50.938;7.286;2022-12-07T04:58:28;62.67;;;36.60;;
34497;SDS011;20744;50.938;7.286;2022-12-07T05:00:55;64.28;;;36.95;;
34497;SDS011;20744;50.938;7.286;2022-12-07T05:03:22;66.32;;;39.00;;
34497;SDS011;20744;50.938;7.286;2022-12-07T05:05:49;67.13;;;38.97;;
34497;SDS011;20744;50.938;7.286;2022-12-07T05:08:16;70.07;;;39.90;;
34497;SDS011;20744;50.938;7.286;2022-12-07T05:10:44;69.93;;;40.15;;
34497;SDS011;20744;50.938;7.286;2022-12-07T05:13:12;67.72;;;38.65;;
34497;SDS011;20744;50.938;7.286;2022-12-07T05:15:39;64.85;;;38.13;;
34497;SDS011;20744;50.938;7.286;2022-12-07T05:18:07;63.53;;;37.83;;
34497;SDS011;20744;50.938;7.286;2022-12-07T05:20:37;56.03;;;35.60;;
34497;SDS011;20744;50.938;7.286;2022-12-07T05:23:04;59.38;;;36.00;;
34497;SDS011;20744;50.938;7.286;2022-12-07T05:25:31;64.32;;;36.20;;
34497;SDS011;20744;50.938;7.286;2022-12-07T05:27:59;59.22;;;35.45;;
34497;SDS011;20744;50.938;7.286;2022-12-07T05:30:27;56.08;;;34.50;;
34497;SDS011;20744;50.938;7.286;2022-12-07T05:32:55;56.67;;;35.47;;
34497;SDS011;20744;50.938;7.286;2022-12-07T05:35:22;58.65;;;35.72;;
34497;SDS011;20744;50.938;7.286;2022-12-07T05:37:49;73.03;;;38.72;;
34497;SDS011;20744;50.938;7.286;2022-12-07T05:40:17;71.18;;;37.33;;
34497;SDS011;20744;50.938;7.286;2022-12-07T05:42:44;63.70;;;37.85;;
34497;SDS011;20744;50.938;7.286;2022-12-07T05:45:11;69.28;;;39.35;;
34497;SDS011;20744;50.938;7.286;2022-12-07T05:47:40;65.35;;;38.20;;
34497;SDS011;20744;50.938;7.286;2022-12-07T05:50:07;69.60;;;39.80;;
34497;SDS011;20744;50.938;7.286;2022-12-07T05:52:35;69.38;;;38.90;;
34497;SDS011;20744;50.938;7.286;2022-12-07T05:55:02;63.40;;;38.92;;
34497;SDS011;20744;50.938;7.286;2022-12-07T05:57:29;57.90;;;35.67;;
34497;SDS011;20744;50.938;7.286;2022-12-07T05:59:56;50.65;;;33.50;;
34497;SDS011;20744;50.938;7.286;2022-12-07T06:02:23;47.20;;;30.20;;
34497;SDS011;20744;50.938;7.286;2022-12-07T06:04:51;41.28;;;25.48;;
34497;SDS011;20744;50.938;7.286;2022-12-07T06:07:18;39.35;;;25.65;;
34497;SDS011;20744;50.938;7.286;2022-12-07T06:09:46;34.08;;;23.05;;
34497;SDS011;20744;50.938;7.286;2022-12-07T06:12:13;36.08;;;23.55;;
34497;SDS011;20744;50.938;7.286;2022-12-07T06:14:57;35.77;;;22.27;;
34497;SDS011;20744;50.938;7.286;2022-12-07T06:17:25;31.10;;;21.08;;
34497;SDS011;20744;50.938;7.286;2022-12-07T06:19:53;35.42;;;23.08;;
34497;SDS011;20744;50.938;7.286;2022-12-07T06:22:21;34.83;;;21.45;;
34497;SDS011;20744;50.938;7.286;2022-12-07T06:24:48;36.63;;;21.95;;
34497;SDS011;20744;50.938;7.286;2022-12-07T06:27:15;33.15;;;23.95;;
34497;SDS011;20744;50.938;7.286;2022-12-07T06:29:42;47.40;;;26.45;;
34497;SDS011;20744;50.938;7.286;2022-12-07T06:32:10;43.22;;;27.30;;
34497;SDS011;20744;50.938;7.286;2022-12-07T06:34:37;53.08;;;29.48;;
34497;SDS011;20744;50.938;7.286;2022-12-07T06:37:06;54.72;;;32.03;;
34497;SDS011;20744;50.938;7.286;2022-12-07T06:39:33;51.25;;;31.23;;
34497;SDS011;20744;50.938;7.286;2022-12-07T06:42:00;48.00;;;30.60;;
34497;SDS011;20744;50.938;7.286;2022-12-07T06:44:27;49.50;;;31.15;;
34497;SDS011;20744;50.938;7.286;2022-12-07T06:46:54;48.20;;;30.77;;
34497;SDS011;20744;50.938;7.286;2022-12-07T06:49:22;52.30;;;30.95;;
34497;SDS011;20744;50.938;7.286;2022-12-07T06:51:49;57.17;;;31.92;;
34497;SDS011;20744;50.938;7.286;2022-12-07T06:54:18;54.55;;;33.17;;
34497;SDS011;20744;50.938;7.286;2022-12-07T06:56:45;57.95;;;31.27;;
34497;SDS011;20744;50.938;7.286;2022-12-07T06:59:12;49.50;;;30.90;;
34497;SDS011;20744;50.938;7.286;2022-12-07T07:01:39;52.20;;;32.03;;
34497;SDS011;20744;50.938;7.286;2022-12-07T07:04:07;48.70;;;30.95;;
34497;SDS011;20744;50.938;7.286;2022-12-07T07:06:34;47.25;;;29.92;;
34497;SDS011;20744;50.938;7.286;2022-12-07T07:09:01;57.47;;;31.98;;
34497;SDS011;20744;50.938;7.286;2022-12-07T07:11:30;44.33;;;29.48;;
34497;SDS011;20744;50.938;7.286;2022-12-07T07:13:57;52.45;;;30.13;;
34497;SDS011;20744;50.938;7.286;2022-12-07T07:16:27;50.47;;;29.48;;
34497;SDS011;20744;50.938;7.286;2022-12-07T07:18:55;51.28;;;29.05;;
34497;SDS011;20744;50.938;7.286;2022-12-07T07:21:22;41.85;;;26.55;;
34497;SDS011;20744;50.938;7.286;2022-12-07T07:23:49;49.63;;;27.13;;
34497;SDS011;20744;50.938;7.286;2022-12-07T07:26:17;44.60;;;26.85;;
34497;SDS011;20744;50.938;7.286;2022-12-07T07:28:45;48.70;;;26.45;;
34497;SDS011;20744;50.938;7.286;2022-12-07T07:31:12;46.35;;;27.60;;
34497;SDS011;20744;50.938;7.286;2022-12-07T07:33:40;41.30;;;26.83;;
34497;SDS011;20744;50.938;7.286;2022-12-07T07:36:07;44.58;;;28.27;;
34497;SDS011;20744;50.938;7.286;2022-12-07T07:38:34;49.65;;;29.00;;
34497;SDS011;20744;50.938;7.286;2022-12-07T07:41:02;43.88;;;29.20;;
34497;SDS011;20744;50.938;7.286;2022-12-07T07:43:29;48.28;;;28.92;;
34497;SDS011;20744;50.938;7.286;2022-12-07T07:45:58;62.38;;;30.27;;
34497;SDS011;20744;50.938;7.286;2022-12-07T07:48:25;49.28;;;28.42;;
34497;SDS011;20744;50.938;7.286;2022-12-07T07:50:52;58.53;;;33.40;;
34497;SDS011;20744;50.938;7.286;2022-12-07T07:53:19;58.30;;;31.38;;
34497;SDS011;20744;50.938;7.286;2022-12-07T07:55:50;49.53;;;32.25;;
34497;SDS011;20744;50.938;7.286;2022-12-07T07:58:18;56.47;;;32.30;;
34497;SDS011;20744;50.938;7.286;2022-12-07T08:00:46;58.75;;;33.70;;
34497;SDS011;20744;50.938;7.286;2022-12-07T08:03:14;56.63;;;33.05;;
34497;SDS011;20744;50.938;7.286;2022-12-07T08:05:41;60.40;;;34.67;;
34497;SDS011;20744;50.938;7.286;2022-12-07T08:08:09;57.25;;;34.08;;
34497;SDS011;20744;50.938;7.286;2022-12-07T08:10:36;53.28;;;34.28;;
34497;SDS011;20744;50.938;7.286;2022-12-07T08:13:03;54.38;;;33.80;;
34497;SDS011;20744;50.938;7.286;2022-12-07T08:15:40;63.55;;;34.38;;
34497;SDS011;20744;50.938;7.286;2022-12-07T08:18:07;56.25;;;34.05;;
34497;SDS011;20744;50.938;7.286;2022-12-07T08:20:36;60.92;;;34.38;;
34497;SDS011;20744;50.938;7.286;2022-12-07T08:23:04;63.08;;;34.72;;
34497;SDS011;20744;50.938;7.286;2022-12-07T08:25:31;62.03;;;35.97;;
34497;SDS011;20744;50.938;7.286;2022-12-07T08:27:59;63.15;;;36.30;;
34497;SDS011;20744;50.938;7.286;2022-12-07T08:30:26;58.33;;;35.47;;
34497;SDS011;20744;50.938;7.286;2022-12-07T08:32:54;66.47;;;35.85;;
34497;SDS011;20744;50.938;7.286;2022-12-07T08:35:22;64.28;;;36.20;;
34497;SDS011;20744;50.938;7.286;2022-12-07T08:37:50;67.55;;;36.53;;
34497;SDS011;20744;50.938;7.286;2022-12-07T08:40:18;71.35;;;36.97;;
34497;SDS011;20744;50.938;7.286;2022-12-07T08:42:48;67.80;;;37.13;;
34497;SDS011;20744;50.938;7.286;2022-12-07T08:45:16;68.03;;;36.00;;
34497;SDS011;20744;50.938;7.286;2022-12-07T08:47:44;58.88;;;35.28;;
34497;SDS011;20744;50.938;7.286;2022-12-07T08:50:13;65.22;;;35.72;;
34497;SDS011;20744;50.938;7.286;2022-12-07T08:52:40;57.35;;;32.80;;
34497;SDS011;20744;50.938;7.286;2022-12-07T08:55:10;59.65;;;36.22;;
34497;SDS011;20744;50.938;7.286;2022-12-07T08:57:38;61.35;;;35.60;;
34497;SDS011;20744;50.938;7.286;2022-12-07T09:00:07;68.95;;;39.58;;
34497;SDS011;20744;50.938;7.286;2022-12-07T09:02:34;66.72;;;38.70;;
34497;SDS011;20744;50.938;7.286;2022-12-07T09:05:02;64.55;;;37.78;;
34497;SDS011;20744;50.938;7.286;2022-12-07T09:07:29;64.35;;;36.58;;
34497;SDS011;20744;50.938;7.286;2022-12-07T09:09:57;65.07;;;35.67;;
34497;SDS011;20744;50.938;7.286;2022-12-07T09:12:26;67.68;;;37.08;;
34497;SDS011;20744;50.938;7.286;2022-12-07T09:14:53;68.45;;;36.25;;
34497;SDS011;20744;50.938;7.286;2022-12-07T09:17:20;69.88;;;35.70;;
34497;SDS011;20744;50.938;7.286;2022-12-07T09:19:47;63.13;;;37.15;;
34497;SDS011;20744;50.938;7.286;2022-12-07T09:22:14;64.40;;;35.85;;
34497;SDS011;20744;50.938;7.286;2022-12-07T09:24:42;61.17;;;37.13;;
34497;SDS011;20744;50.938;7.286;2022-12-07T09:27:10;62.47;;;36.35;;
34497;SDS011;20744;50.938;7.286;2022-12-07T09:29:39;59.28;;;35.65;;
34497;SDS011;20744;50.938;7.286;2022-12-07T09:32:06;53.65;;;31.83;;
34497;SDS011;20744;50.938;7.286;2022-12-07T09:34:33;58.85;;;33.42;;
34497;SDS011;20744;50.938;7.286;2022-12-07T09:37:01;52.30;;;32.63;;
34497;SDS011;20744;50.938;7.286;2022-12-07T09:39:29;54.40;;;32.92;;
34497;SDS011;20744;50.938;7.286;2022-12-07T09:41:56;51.13;;;31.35;;
34497;SDS011;20744;50.938;7.286;2022-12-07T09:44:25;60.58;;;34.13;;
34497;SDS011;20744;50.938;7.286;2022-12-07T09:46:54;58.42;;;35.50;;
34497;SDS011;20744;50.938;7.286;2022-12-07T09:49:22;58.80;;;34.25;;
34497;SDS011;20744;50.938;7.286;2022-12-07T09:51:59;61.60;;;33.75;;
34497;SDS011;20744;50.938;7.286;2022-12-07T09:54:27;56.72;;;33.83;;
34497;SDS011;20744;50.938;7.286;2022-12-07T09:56:55;53.85;;;33.17;;
34497;SDS011;20744;50.938;7.286;2022-12-07T09:59:22;62.90;;;34.95;;
34497;SDS011;20744;50.938;7.286;2022-12-07T10:01:50;55.60;;;34.15;;
34497;SDS011;20744;50.938;7.286;2022-12-07T10:04:20;62.70;;;36.25;;
34497;SDS011;20744;50.938;7.286;2022-12-07T10:06:48;56.78;;;35.20;;
34497;SDS011;20744;50.938;7.286;2022-12-07T10:09:16;53.25;;;34.80;;
34497;SDS011;20744;50.938;7.286;2022-12-07T10:12:03;50.40;;;31.58;;
34497;SDS011;20744;50.938;7.286;2022-12-07T10:14:32;56.80;;;33.75;;
34497;SDS011;20744;50.938;7.286;2022-12-07T10:17:00;45.45;;;30.33;;
34497;SDS011;20744;50.938;7.286;2022-12-07T10:19:29;48.30;;;31.80;;
34497;SDS011;20744;50.938;7.286;2022-12-07T10:22:01;50.13;;;31.90;;
34497;SDS011;20744;50.938;7.286;2022-12-07T10:24:28;46.92;;;29.58;;
34497;SDS011;20744;50.938;7.286;2022-12-07T10:26:56;42.17;;;28.73;;
34497;SDS011;20744;50.938;7.286;2022-12-07T10:29:24;50.63;;;31.10;;
34497;SDS011;20744;50.938;7.286;2022-12-07T10:31:56;47.80;;;28.33;;
34497;SDS011;20744;50.938;7.286;2022-12-07T10:34:24;48.90;;;30.52;;
34497;SDS011;20744;50.938;7.286;2022-12-07T10:37:06;41.13;;;29.38;;
34497;SDS011;20744;50.938;7.286;2022-12-07T10:39:40;43.65;;;27.27;;
34497;SDS011;20744;50.938;7.286;2022-12-07T10:42:12;41.90;;;28.88;;
34497;SDS011;20744;50.938;7.286;2022-12-07T10:44:42;45.13;;;28.75;;
34497;SDS011;20744;50.938;7.286;2022-12-07T10:47:15;46.95;;;28.60;;
34497;SDS011;20744;50.938;7.286;2022-12-07T10:50:03;50.15;;;29.77;;
34497;SDS011;20744;50.938;7.286;2022-12-07T10:52:42;45.80;;;26.67;;
34497;SDS011;20744;50.938;7.286;2022-12-07T10:55:16;39.45;;;26.50;;
34497;SDS011;20744;50.938;7.286;2022-12-07T10:57:50;38.58;;;25.42;;
34497;SDS011;20744;50.938;7.286;2022-12-07T11:00:21;41.45;;;26.10;;
34497;SDS011;20744;50.938;7.286;2022-12-07T11:02:53;42.38;;;25.75;;
34497;SDS011;20744;50.938;7.286;2022-12-07T11:05:26;40.92;;;24.65;;
34497;SDS011;20744;50.938;7.286;2022-12-07T11:07:59;36.88;;;22.92;;
34497;SDS011;20744;50.938;7.286;2022-12-07T11:10:29;34.40;;;22.48;;
34497;SDS011;20744;50.938;7.286;2022-12-07T11:13:04;39.78;;;23.65;;
34497;SDS011;20744;50.938;7.286;2022-12-07T11:15:36;36.10;;;20.83;;
34497;SDS011;20744;50.938;7.286;2022-12-07T11:18:07;35.05;;;21.92;;
34497;SDS011;20744;50.938;7.286;2022-12-07T11:20:40;34.13;;;20.98;;
34497;SDS011;20744;50.938;7.286;2022-12-07T11:23:13;32.78;;;20.80;;
34497;SDS011;20744;50.938;7.286;2022-12-07T11:25:45;36.03;;;21.35;;
34497;SDS011;20744;50.938;7.286;2022-12-07T11:28:18;35.38;;;19.92;;
34497;SDS011;20744;50.938;7.286;2022-12-07T11:30:52;30.63;;;19.75;;
34497;SDS011;20744;50.938;7.286;2022-12-07T11:33:26;35.23;;;19.87;;
34497;SDS011;20744;50.938;7.286;2022-12-07T11:35:57;36.05;;;17.77;;
34497;SDS011;20744;50.938;7.286;2022-12-07T11:38:28;35.22;;;17.90;;
34497;SDS011;20744;50.938;7.286;2022-12-07T11:40:59;32.25;;;18.40;;
34497;SDS011;20744;50.938;7.286;2022-12-07T11:43:37;29.08;;;17.30;;
34497;SDS011;20744;50.938;7.286;2022-12-07T11:46:10;25.45;;;16.80;;
34497;SDS011;20744;50.938;7.286;2022-12-07T11:48:40;33.35;;;15.27;;
34497;SDS011;20744;50.938;7.286;2022-12-07T11:51:09;27.27;;;14.27;;
34497;SDS011;20744;50.938;7.286;2022-12-07T11:53:39;24.40;;;13.55;;
34497;SDS011;20744;50.938;7.286;2022-12-07T11:56:09;24.95;;;13.80;;
34497;SDS011;20744;50.938;7.286;2022-12-07T11:58:40;25.80;;;12.95;;
34497;SDS011;20744;50.938;7.286;2022-12-07T12:01:22;22.10;;;12.35;;
34497;SDS011;20744;50.938;7.286;2022-12-07T12:03:53;23.50;;;11.27;;
34497;SDS011;20744;50.938;7.286;2022-12-07T12:06:23;20.10;;;10.65;;
34497;SDS011;20744;50.938;7.286;2022-12-07T12:08:53;19.80;;;10.00;;
34497;SDS011;20744;50.938;7.286;2022-12-07T12:11:27;23.20;;;11.82;;
34497;SDS011;20744;50.938;7.286;2022-12-07T12:14:11;21.33;;;11.23;;
34497;SDS011;20744;50.938;7.286;2022-12-07T12:19:25;20.25;;;8.23;;
34497;SDS011;20744;50.938;7.286;2022-12-07T12:21:55;26.63;;;15.23;;
34497;SDS011;20744;50.938;7.286;2022-12-07T12:24:25;19.67;;;7.55;;
34497;SDS011;20744;50.938;7.286;2022-12-07T12:26:54;14.98;;;6.82;;
34497;SDS011;20744;50.938;7.286;2022-12-07T12:29:26;15.27;;;7.38;;
34497;SDS011;20744;50.938;7.286;2022-12-07T12:32:05;15.50;;;7.28;;
34497;SDS011;20744;50.938;7.286;2022-12-07T12:34:38;19.35;;;7.47;;
34497;SDS011;20744;50.938;7.286;2022-12-07T12:37:17;17.67;;;6.80;;
34497;SDS011;20744;50.938;7.286;2022-12-07T12:42:44;19.73;;;8.63;;
34497;SDS011;20744;50.938;7.286;2022-12-07T12:45:20;16.88;;;7.55;;
34497;SDS011;20744;50.938;7.286;2022-12-07T12:50:19;26.70;;;9.30;;
34497;SDS011;20744;50.938;7.286;2022-12-07T12:52:53;19.05;;;9.60;;
34497;SDS011;20744;50.938;7.286;2022-12-07T12:58:29;23.17;;;10.10;;
34497;SDS011;20744;50.938;7.286;2022-12-07T13:03:51;25.42;;;10.85;;
34497;SDS011;20744;50.938;7.286;2022-12-07T13:06:19;18.88;;;9.70;;
34497;SDS011;20744;50.938;7.286;2022-12-07T13:08:47;23.33;;;9.57;;
34497;SDS011;20744;50.938;7.286;2022-12-07T13:11:18;28.58;;;10.50;;
34497;SDS011;20744;50.938;7.286;2022-12-07T13:13:47;19.23;;;10.15;;
34497;SDS011;20744;50.938;7.286;2022-12-07T13:24:55;18.73;;;11.00;;
34497;SDS011;20744;50.938;7.286;2022-12-07T13:27:22;26.17;;;11.13;;
34497;SDS011;20744;50.938;7.286;2022-12-07T13:29:52;24.92;;;11.10;;
34497;SDS011;20744;50.938;7.286;2022-12-07T13:32:22;25.45;;;10.82;;
34497;SDS011;20744;50.938;7.286;2022-12-07T13:34:50;20.73;;;11.05;;
34497;SDS011;20744;50.938;7.286;2022-12-07T13:37:20;25.17;;;13.32;;
34497;SDS011;20744;50.938;7.286;2022-12-07T13:39:49;24.50;;;10.60;;
34497;SDS011;20744;50.938;7.286;2022-12-07T13:42:19;26.10;;;10.82;;
34497;SDS011;20744;50.938;7.286;2022-12-07T13:44:49;25.02;;;11.60;;
34497;SDS011;20744;50.938;7.286;2022-12-07T13:47:19;20.70;;;10.60;;
34497;SDS011;20744;50.938;7.286;2022-12-07T13:49:49;19.52;;;10.63;;
34497;SDS011;20744;50.938;7.286;2022-12-07T13:52:19;31.75;;;11.77;;
34497;SDS011;20744;50.938;7.286;2022-12-07T13:54:48;22.70;;;11.35;;
34497;SDS011;20744;50.938;7.286;2022-12-07T13:57:16;31.67;;;10.90;;
34497;SDS011;20744;50.938;7.286;2022-12-07T13:59:44;25.80;;;10.85;;
34497;SDS011;20744;50.938;7.286;2022-12-07T14:02:20;26.77;;;10.60;;
34497;SDS011;20744;50.938;7.286;2022-12-07T14:04:49;22.83;;;10.25;;
34497;SDS011;20744;50.938;7.286;2022-12-07T14:07:18;27.58;;;10.82;;
34497;SDS011;20744;50.938;7.286;2022-12-07T14:09:53;22.85;;;10.50;;
34497;SDS011;20744;50.938;7.286;2022-12-07T14:12:22;23.85;;;10.70;;
34497;SDS011;20744;50.938;7.286;2022-12-07T14:14:50;29.92;;;11.77;;
34497;SDS011;20744;50.938;7.286;2022-12-07T14:17:18;27.00;;;11.13;;
34497;SDS011;20744;50.938;7.286;2022-12-07T14:19:49;20.58;;;10.73;;
34497;SDS011;20744;50.938;7.286;2022-12-07T14:22:21;27.98;;;11.82;;
34497;SDS011;20744;50.938;7.286;2022-12-07T14:24:49;23.05;;;11.70;;
34497;SDS011;20744;50.938;7.286;2022-12-07T14:27:17;24.42;;;12.40;;
34497;SDS011;20744;50.938;7.286;2022-12-07T14:29:45;28.38;;;11.82;;
34497;SDS011;20744;50.938;7.286;2022-12-07T14:32:22;21.67;;;11.50;;
34497;SDS011;20744;50.938;7.286;2022-12-07T14:34:55;27.58;;;12.30;;
34497;SDS011;20744;50.938;7.286;2022-12-07T14:37:23;21.77;;;11.93;;
34497;SDS011;20744;50.938;7.286;2022-12-07T14:39:50;30.27;;;13.32;;
34497;SDS011;20744;50.938;7.286;2022-12-07T14:42:17;24.23;;;12.40;;
34497;SDS011;20744;50.938;7.286;2022-12-07T14:44:45;27.85;;;12.13;;
34497;SDS011;20744;50.938;7.286;2022-12-07T14:47:12;28.27;;;13.80;;
34497;SDS011;20744;50.938;7.286;2022-12-07T14:49:40;24.15;;;12.10;;
34497;SDS011;20744;50.938;7.286;2022-12-07T14:52:11;28.95;;;13.20;;
34497;SDS011;20744;50.938;7.286;2022-12-07T14:54:39;31.13;;;12.77;;
34497;SDS011;20744;50.938;7.286;2022-12-07T14:57:08;23.30;;;11.43;;
34497;SDS011;20744;50.938;7.286;2022-12-07T14:59:36;27.35;;;12.77;;